createdAt,value
2019-02-18T00:02:00.444Z,0.50
2019-02-18T00:04:27.660Z,0.60
2019-02-18T00:06:54.914Z,0.50
2019-02-18T00:09:22.245Z,0.40
2019-02-18T00:11:49.592Z,0.50
2019-02-18T00:14:16.803Z,0.60
2019-02-18T00:16:44.417Z,0.60
2019-02-18T00:19:11.960Z,0.60
2019-02-18T00:21:39.200Z,0.50
2019-02-18T00:24:06.786Z,0.30
2019-02-18T00:26:34.323Z,0.20
2019-02-18T00:29:01.547Z,0.10
2019-02-18T00:31:28.769Z,0.00
2019-02-18T00:33:56.403Z,-0.10
2019-02-18T00:36:23.627Z,-0.10
2019-02-18T00:38:50.852Z,-0.10
2019-02-18T00:41:18.343Z,-0.10
2019-02-18T00:43:45.564Z,-0.10
2019-02-18T00:46:13.055Z,-0.20
2019-02-18T00:48:40.271Z,-0.30
2019-02-18T00:51:07.899Z,-0.40
2019-02-18T00:53:35.444Z,-0.40
2019-02-18T00:56:02.666Z,-0.40
2019-02-18T00:58:29.973Z,-0.40
2019-02-18T01:00:57.487Z,-0.50
2019-02-18T01:03:24.802Z,-0.40
2019-02-18T01:05:52.024Z,-0.50
2019-02-18T01:08:19.232Z,-0.40
2019-02-18T01:10:46.447Z,-0.40
2019-02-18T01:13:13.673Z,-0.20
2019-02-18T01:15:40.901Z,-0.10
2019-02-18T01:18:08.237Z,-0.10
2019-02-18T01:20:35.527Z,0.00
2019-02-18T01:23:02.863Z,0.00
2019-02-18T01:25:30.079Z,0.00
2019-02-18T01:27:57.432Z,0.00
2019-02-18T01:30:25.020Z,0.00
2019-02-18T01:32:52.272Z,-0.20
2019-02-18T01:35:19.487Z,-0.30
2019-02-18T01:37:46.734Z,-0.50
2019-02-18T01:40:14.450Z,-0.50
2019-02-18T01:42:41.782Z,-0.50
2019-02-18T01:45:10.433Z,-0.40
2019-02-18T01:47:37.696Z,-0.30
2019-02-18T01:50:07.184Z,-0.30
2019-02-18T01:52:34.440Z,-0.50
2019-02-18T01:55:01.939Z,-0.50
2019-02-18T01:57:29.199Z,-0.60
2019-02-18T01:59:56.408Z,-0.60
2019-02-18T02:02:23.653Z,-0.60
2019-02-18T02:04:50.884Z,-0.60
2019-02-18T02:07:18.148Z,-0.60
2019-02-18T02:09:45.678Z,-0.60
2019-02-18T02:12:13.307Z,-0.60
2019-02-18T02:14:40.534Z,-0.60
2019-02-18T02:17:07.752Z,-0.70
2019-02-18T02:19:36.776Z,-0.70
2019-02-18T02:22:04.268Z,-0.70
2019-02-18T02:24:31.492Z,-0.80
2019-02-18T02:26:58.713Z,-0.80
2019-02-18T02:29:26.230Z,-0.80
2019-02-18T02:31:53.793Z,-0.80
2019-02-18T02:34:21.029Z,-0.80
2019-02-18T02:36:48.346Z,-0.90
2019-02-18T02:39:15.561Z,-0.90
2019-02-18T02:41:42.780Z,-0.80
2019-02-18T02:44:10.049Z,-0.80
2019-02-18T02:46:37.364Z,-0.90
2019-02-18T02:49:04.851Z,-0.90
2019-02-18T02:51:32.087Z,-0.90
2019-02-18T02:53:59.403Z,-0.90
2019-02-18T02:56:27.355Z,-0.90
2019-02-18T02:58:54.597Z,-1.10
2019-02-18T03:01:21.821Z,-1.10
2019-02-18T03:03:49.392Z,-1.10
2019-02-18T03:06:16.613Z,-1.00
2019-02-18T03:08:43.853Z,-1.00
2019-02-18T03:11:11.357Z,-1.00
2019-02-18T03:13:38.952Z,-1.10
2019-02-18T03:16:06.474Z,-1.10
2019-02-18T03:18:33.716Z,-1.10
2019-02-18T03:21:00.940Z,-1.20
2019-02-18T03:23:28.221Z,-1.20
2019-02-18T03:25:55.436Z,-1.30
2019-02-18T03:28:59.913Z,-1.30
2019-02-18T03:31:28.032Z,-1.30
2019-02-18T03:34:02.178Z,-1.20
2019-02-18T03:36:29.401Z,-1.30
2019-02-18T03:38:56.719Z,-1.30
2019-02-18T03:41:23.970Z,-1.20
2019-02-18T03:43:51.236Z,-1.10
2019-02-18T03:46:18.756Z,-1.20
2019-02-18T03:48:45.997Z,-1.10
2019-02-18T03:51:13.236Z,-1.10
2019-02-18T03:53:40.544Z,-1.00
2019-02-18T03:56:07.774Z,-1.10
2019-02-18T03:58:35.308Z,-1.10
2019-02-18T04:01:02.902Z,-1.00
2019-02-18T04:03:30.361Z,-0.90
2019-02-18T04:05:57.608Z,-1.00
2019-02-18T04:08:24.831Z,-1.00
2019-02-18T04:10:51.980Z,-1.00
2019-02-18T04:13:19.202Z,-0.90
2019-02-18T04:15:46.448Z,-0.90
2019-02-18T04:18:13.667Z,-0.90
2019-02-18T04:20:40.916Z,-1.00
2019-02-18T04:23:08.449Z,-0.90
2019-02-18T04:25:35.697Z,-0.90
2019-02-18T04:28:02.925Z,-1.00
2019-02-18T04:30:30.214Z,-1.10
2019-02-18T04:32:57.545Z,-1.20
2019-02-18T04:35:24.772Z,-1.10
2019-02-18T04:37:52.021Z,-1.10
2019-02-18T04:40:19.239Z,-1.00
2019-02-18T04:42:46.456Z,-1.00
2019-02-18T04:45:13.669Z,-1.00
2019-02-18T04:47:41.194Z,-1.10
2019-02-18T04:50:08.416Z,-1.10
2019-02-18T04:52:35.685Z,-1.10
2019-02-18T04:55:03.303Z,-1.10
2019-02-18T04:57:31.431Z,-1.10
2019-02-18T04:59:58.943Z,-1.20
2019-02-18T05:02:26.580Z,-1.30
2019-02-18T05:04:53.891Z,-1.30
2019-02-18T05:07:21.228Z,-1.20
2019-02-18T05:09:48.812Z,-1.10
2019-02-18T05:12:16.060Z,-1.10
2019-02-18T05:14:43.376Z,-1.20
2019-02-18T05:17:10.735Z,-1.20
2019-02-18T05:19:37.976Z,-1.20
2019-02-18T05:22:05.223Z,-1.20
2019-02-18T05:24:32.445Z,-1.40
2019-02-18T05:26:59.679Z,-1.50
2019-02-18T05:29:26.899Z,-1.50
2019-02-18T05:31:54.144Z,-1.40
2019-02-18T05:34:21.717Z,-1.30
2019-02-18T05:36:48.957Z,-1.30
2019-02-18T05:39:18.387Z,-1.20
2019-02-18T05:41:45.337Z,-1.20
2019-02-18T05:44:12.552Z,-1.20
2019-02-18T05:46:39.898Z,-1.20
2019-02-18T05:49:07.208Z,-1.20
2019-02-18T05:51:34.452Z,-1.20
2019-02-18T05:54:01.689Z,-1.10
2019-02-18T05:56:29.344Z,-1.10
2019-02-18T05:58:56.583Z,-1.10
2019-02-18T06:01:23.905Z,-1.10
2019-02-18T06:03:51.121Z,-1.10
2019-02-18T06:06:18.768Z,-1.10
2019-02-18T06:08:46.016Z,-1.10
2019-02-18T06:11:13.341Z,-1.10
2019-02-18T06:13:41.043Z,-1.10
2019-02-18T06:16:08.274Z,-1.10
2019-02-18T06:18:35.597Z,-1.10
2019-02-18T06:21:02.917Z,-1.10
2019-02-18T06:23:30.170Z,-1.00
2019-02-18T06:25:57.383Z,-1.00
2019-02-18T06:28:24.631Z,-1.00
2019-02-18T06:30:51.954Z,-1.00
2019-02-18T06:33:19.193Z,-1.00
2019-02-18T06:35:46.484Z,-1.00
2019-02-18T06:38:14.197Z,-1.10
2019-02-18T06:40:41.596Z,-1.10
2019-02-18T06:43:08.840Z,-1.20
2019-02-18T06:45:55.584Z,-1.20
2019-02-18T06:48:26.488Z,-1.20
2019-02-18T06:50:54.075Z,-1.20
2019-02-18T06:53:21.336Z,-1.10
2019-02-18T06:55:48.888Z,-1.10
2019-02-18T06:58:38.612Z,-1.10
2019-02-18T07:01:16.900Z,-1.10
2019-02-18T07:04:02.581Z,-1.20
2019-02-18T07:06:54.544Z,-1.30
2019-02-18T07:09:53.086Z,-1.30
2019-02-18T07:12:29.107Z,-1.40
2019-02-18T07:14:56.323Z,-1.40
2019-02-18T07:17:23.838Z,-1.20
2019-02-18T07:19:51.055Z,-1.10
2019-02-18T07:22:18.268Z,-1.00
2019-02-18T07:24:45.480Z,-0.70
2019-02-18T07:27:12.604Z,-0.50
2019-02-18T07:29:39.824Z,-0.10
2019-02-18T07:32:07.061Z,0.20
2019-02-18T07:34:34.314Z,0.80
2019-02-18T07:37:01.550Z,1.00
2019-02-18T07:39:28.953Z,1.20
2019-02-18T07:41:56.460Z,1.50
2019-02-18T07:44:23.715Z,2.60
2019-02-18T07:46:50.936Z,3.50
2019-02-18T07:49:18.205Z,3.00
2019-02-18T07:51:45.800Z,2.30
2019-02-18T07:54:13.131Z,2.10
2019-02-18T07:56:44.434Z,2.30
2019-02-18T07:59:09.499Z,2.50
2019-02-18T08:01:36.711Z,2.20
2019-02-18T08:04:04.232Z,1.90
2019-02-18T08:06:31.454Z,2.00
2019-02-18T08:08:58.902Z,1.90
2019-02-18T08:11:26.129Z,2.00
2019-02-18T08:13:53.374Z,2.00
2019-02-18T08:16:20.661Z,2.00
2019-02-18T08:18:48.227Z,2.00
2019-02-18T08:21:15.448Z,2.10
2019-02-18T08:23:42.705Z,2.20
2019-02-18T08:26:10.267Z,2.20
2019-02-18T08:28:37.520Z,2.50
2019-02-18T08:31:04.739Z,2.90
2019-02-18T08:33:31.994Z,3.20
2019-02-18T08:35:59.500Z,3.70
2019-02-18T08:38:26.724Z,4.50
2019-02-18T08:40:54.033Z,4.60
2019-02-18T08:43:21.247Z,5.30
2019-02-18T08:45:48.513Z,6.10
2019-02-18T08:48:15.728Z,6.90
2019-02-18T08:50:43.060Z,7.60
2019-02-18T08:53:10.313Z,8.60
2019-02-18T08:55:37.923Z,9.20
2019-02-18T08:58:05.469Z,8.90
2019-02-18T09:00:32.800Z,8.50
2019-02-18T09:03:00.015Z,8.30
2019-02-18T09:05:27.524Z,8.40
2019-02-18T09:07:55.083Z,8.30
2019-02-18T09:10:32.753Z,8.90
2019-02-18T09:12:51.469Z,9.00
2019-02-18T09:15:18.714Z,9.20
2019-02-18T09:17:45.948Z,9.50
2019-02-18T09:20:13.171Z,9.30
2019-02-18T09:23:00.050Z,9.40
2019-02-18T09:25:32.733Z,9.90
2019-02-18T09:28:00.079Z,10.10
2019-02-18T09:30:30.420Z,9.90
2019-02-18T09:32:57.763Z,9.40
2019-02-18T09:35:24.995Z,8.90
2019-02-18T09:37:52.288Z,9.00
2019-02-18T09:40:19.971Z,9.20
2019-02-18T09:42:47.629Z,9.60
2019-02-18T09:45:15.019Z,10.10
2019-02-18T09:47:42.375Z,11.00
2019-02-18T09:50:09.654Z,12.10
2019-02-18T09:52:37.086Z,13.00
2019-02-18T09:55:04.672Z,13.20
2019-02-18T09:57:31.901Z,13.40
2019-02-18T09:59:59.149Z,13.60
2019-02-18T10:02:26.368Z,13.90
2019-02-18T10:04:53.624Z,14.20
2019-02-18T10:07:20.857Z,14.50
2019-02-18T10:09:48.107Z,14.70
2019-02-18T10:12:18.434Z,15.40
2019-02-18T10:14:44.484Z,15.50
2019-02-18T10:17:12.123Z,15.40
2019-02-18T10:19:39.383Z,15.20
2019-02-18T10:22:06.780Z,15.50
2019-02-18T10:24:34.318Z,15.40
2019-02-18T10:27:01.536Z,15.60
2019-02-18T10:29:28.787Z,15.80
2019-02-18T10:31:56.027Z,16.10
2019-02-18T10:34:23.721Z,16.30
2019-02-18T10:36:51.015Z,16.10
2019-02-18T10:39:18.633Z,16.10
2019-02-18T10:41:45.849Z,15.90
2019-02-18T10:44:13.099Z,15.90
2019-02-18T10:46:40.793Z,15.70
2019-02-18T10:49:18.976Z,15.60
2019-02-18T10:51:37.285Z,16.00
2019-02-18T10:54:05.311Z,16.30
2019-02-18T10:56:32.693Z,16.70
2019-02-18T10:59:00.023Z,16.80
2019-02-18T11:01:27.324Z,16.80
2019-02-18T11:03:54.665Z,16.70
2019-02-18T11:06:22.389Z,16.70
2019-02-18T11:08:49.616Z,16.90
2019-02-18T11:11:17.358Z,17.50
2019-02-18T11:13:44.792Z,17.60
2019-02-18T11:16:12.316Z,17.70
2019-02-18T11:18:39.536Z,17.80
2019-02-18T11:21:07.539Z,17.80
2019-02-18T11:23:35.099Z,18.20
2019-02-18T11:26:02.326Z,18.90
2019-02-18T11:28:29.538Z,19.00
2019-02-18T11:30:56.803Z,19.30
2019-02-18T11:33:24.117Z,19.50
2019-02-18T11:35:51.763Z,19.60
2019-02-18T11:38:19.288Z,19.30
2019-02-18T11:40:46.536Z,19.20
2019-02-18T11:43:13.852Z,19.50
2019-02-18T11:45:41.106Z,20.20
2019-02-18T11:48:08.431Z,20.00
2019-02-18T11:50:35.791Z,20.30
2019-02-18T11:53:03.149Z,20.50
2019-02-18T11:55:30.401Z,20.50
2019-02-18T11:57:57.626Z,20.50
2019-02-18T12:00:25.305Z,19.80
2019-02-18T12:03:02.487Z,20.00
2019-02-18T12:05:21.801Z,20.20
2019-02-18T12:07:49.112Z,19.90
2019-02-18T12:10:16.481Z,20.00
2019-02-18T12:12:43.792Z,20.00
2019-02-18T12:15:11.506Z,19.90
2019-02-18T12:17:39.456Z,19.90
2019-02-18T12:20:08.636Z,20.20
2019-02-18T12:22:35.956Z,19.70
2019-02-18T12:25:03.311Z,19.40
2019-02-18T12:27:32.181Z,19.40
2019-02-18T12:29:59.765Z,19.20
2019-02-18T12:32:27.363Z,17.90
2019-02-18T12:34:54.688Z,18.00
2019-02-18T12:37:22.000Z,17.90
2019-02-18T12:39:49.628Z,17.70
2019-02-18T12:42:16.857Z,17.40
2019-02-18T12:44:44.442Z,17.60
2019-02-18T12:47:11.869Z,17.40
2019-02-18T12:49:39.461Z,17.70
2019-02-18T12:52:07.115Z,17.60
2019-02-18T12:54:34.441Z,17.70
2019-02-18T12:57:01.784Z,17.10
2019-02-18T12:59:29.374Z,16.80
2019-02-18T13:01:56.923Z,16.50
2019-02-18T13:04:24.345Z,16.30
2019-02-18T13:06:52.154Z,16.60
2019-02-18T13:09:19.469Z,16.60
2019-02-18T13:11:46.824Z,16.90
2019-02-18T13:14:14.157Z,16.90
2019-02-18T13:16:41.500Z,16.90
2019-02-18T13:19:08.824Z,17.30
2019-02-18T13:21:36.177Z,17.80
2019-02-18T13:24:03.511Z,18.20
2019-02-18T13:26:30.849Z,18.00
2019-02-18T13:28:58.473Z,18.20
2019-02-18T13:31:25.837Z,18.30
2019-02-18T13:33:53.159Z,18.40
2019-02-18T13:36:20.517Z,18.20
2019-02-18T13:38:47.845Z,17.90
2019-02-18T13:41:15.096Z,17.30
2019-02-18T13:43:42.416Z,16.40
2019-02-18T13:46:10.081Z,15.70
2019-02-18T13:48:37.438Z,15.50
2019-02-18T13:51:05.050Z,15.30
2019-02-18T13:53:32.715Z,15.10
2019-02-18T13:56:00.495Z,15.20
2019-02-18T13:58:27.896Z,15.10
2019-02-18T14:00:55.243Z,15.00
2019-02-18T14:03:22.959Z,15.00
2019-02-18T14:05:50.627Z,15.00
2019-02-18T14:08:17.955Z,14.90
2019-02-18T14:10:45.289Z,15.00
2019-02-18T14:13:12.539Z,15.00
2019-02-18T14:15:39.855Z,15.10
2019-02-18T14:18:07.193Z,15.00
2019-02-18T14:20:35.143Z,15.00
2019-02-18T14:23:02.465Z,14.80
2019-02-18T14:25:32.090Z,14.70
2019-02-18T14:27:59.461Z,14.70
2019-02-18T14:30:27.119Z,14.70
2019-02-18T14:32:54.452Z,14.60
2019-02-18T14:35:21.864Z,14.60
2019-02-18T14:37:49.387Z,14.50
2019-02-18T14:40:17.711Z,14.40
2019-02-18T14:42:45.036Z,14.30
2019-02-18T14:45:12.956Z,14.30
2019-02-18T14:47:40.172Z,14.40
2019-02-18T14:50:07.531Z,14.40
2019-02-18T14:52:34.875Z,14.30
2019-02-18T14:55:02.502Z,14.30
2019-02-18T14:57:30.171Z,14.20
2019-02-18T14:59:57.492Z,14.20
2019-02-18T15:02:24.831Z,14.10
2019-02-18T15:04:52.149Z,14.10
2019-02-18T15:07:19.494Z,14.00
2019-02-18T15:09:46.822Z,14.10
2019-02-18T15:12:18.097Z,14.00
2019-02-18T15:14:45.428Z,13.90
2019-02-18T15:17:12.774Z,13.80
2019-02-18T15:19:40.118Z,13.80
2019-02-18T15:22:07.808Z,13.70
2019-02-18T15:24:35.035Z,13.80
2019-02-18T15:27:02.414Z,13.90
2019-02-18T15:29:30.465Z,13.80
2019-02-18T15:31:57.804Z,13.80
2019-02-18T15:34:25.136Z,13.80
2019-02-18T15:36:52.496Z,13.60
2019-02-18T15:39:20.100Z,13.50
2019-02-18T15:41:47.469Z,13.50
2019-02-18T15:44:14.823Z,13.30
2019-02-18T15:46:42.492Z,13.10
2019-02-18T15:49:10.155Z,12.90
2019-02-18T15:51:37.506Z,12.70
2019-02-18T15:54:05.151Z,12.80
2019-02-18T15:56:32.513Z,12.60
2019-02-18T15:59:00.188Z,12.40
2019-02-18T16:01:27.542Z,12.40
2019-02-18T16:03:55.594Z,12.20
2019-02-18T16:06:23.251Z,12.10
2019-02-18T16:08:50.572Z,11.90
2019-02-18T16:11:17.908Z,11.50
2019-02-18T16:13:45.240Z,11.20
2019-02-18T16:16:12.886Z,11.10
2019-02-18T16:18:40.206Z,11.00
2019-02-18T16:21:08.216Z,10.80
2019-02-18T16:23:35.455Z,10.70
2019-02-18T16:26:03.104Z,10.50
2019-02-18T16:28:30.334Z,10.50
2019-02-18T16:30:57.949Z,10.40
2019-02-18T16:33:25.580Z,10.40
2019-02-18T16:35:52.903Z,10.40
2019-02-18T16:38:20.231Z,10.40
2019-02-18T16:40:47.855Z,10.80
2019-02-18T16:43:15.083Z,10.90
2019-02-18T16:45:42.764Z,10.60
2019-02-18T16:48:10.835Z,10.10
2019-02-18T16:50:38.269Z,10.00
2019-02-18T16:53:05.586Z,10.00
2019-02-18T16:55:33.317Z,10.00
2019-02-18T16:58:00.652Z,10.10
2019-02-18T17:00:31.544Z,10.00
2019-02-18T17:02:58.881Z,9.90
2019-02-18T17:05:26.225Z,10.10
2019-02-18T17:07:53.531Z,10.50
2019-02-18T17:10:20.864Z,10.70
2019-02-18T17:12:48.882Z,10.40
2019-02-18T17:15:16.111Z,10.50
2019-02-18T17:17:43.353Z,10.60
2019-02-18T17:20:10.775Z,10.40
2019-02-18T17:22:38.120Z,10.10
2019-02-18T17:25:05.827Z,9.80
2019-02-18T17:27:33.148Z,9.70
2019-02-18T17:30:00.909Z,9.80
2019-02-18T17:32:28.538Z,10.00
2019-02-18T17:34:55.772Z,10.30
2019-02-18T17:37:23.129Z,10.40
2019-02-18T17:39:50.473Z,10.50
2019-02-18T17:42:18.126Z,10.40
2019-02-18T17:44:46.300Z,10.70
2019-02-18T17:47:13.676Z,10.80
2019-02-18T17:49:40.996Z,11.00
2019-02-18T17:52:09.094Z,10.80
2019-02-18T17:54:36.425Z,10.70
2019-02-18T17:57:03.796Z,10.80
2019-02-18T17:59:31.125Z,10.60
2019-02-18T18:01:58.457Z,10.40
2019-02-18T18:04:25.690Z,10.30
2019-02-18T18:06:53.247Z,10.00
2019-02-18T18:09:20.588Z,9.80
2019-02-18T18:11:47.908Z,9.40
2019-02-18T18:14:15.517Z,9.00
2019-02-18T18:16:42.852Z,8.60
2019-02-18T18:19:10.176Z,8.40
2019-02-18T18:21:37.672Z,8.20
2019-02-18T18:24:05.397Z,7.90
2019-02-18T18:26:32.861Z,7.80
2019-02-18T18:29:00.195Z,7.60
2019-02-18T18:31:27.903Z,7.50
2019-02-18T18:33:55.490Z,7.40
2019-02-18T18:36:23.128Z,7.20
2019-02-18T18:38:50.692Z,7.20
2019-02-18T18:41:18.348Z,7.10
2019-02-18T18:43:45.671Z,7.10
2019-02-18T18:46:13.256Z,7.10
2019-02-18T18:48:40.492Z,7.10
2019-02-18T18:51:07.720Z,7.20
2019-02-18T18:53:35.216Z,7.30
2019-02-18T18:56:02.456Z,7.20
2019-02-18T18:58:29.887Z,7.40
2019-02-18T19:00:57.119Z,7.30
2019-02-18T19:03:24.443Z,7.20
2019-02-18T19:05:51.672Z,6.90
2019-02-18T19:08:19.239Z,6.70
2019-02-18T19:10:46.788Z,6.60
2019-02-18T19:13:14.112Z,6.30
2019-02-18T19:15:49.422Z,6.10
2019-02-18T19:18:11.424Z,5.90
2019-02-18T19:20:38.665Z,5.70
2019-02-18T19:23:05.910Z,5.50
2019-02-18T19:25:33.146Z,5.20
2019-02-18T19:28:00.546Z,5.00
2019-02-18T19:30:28.290Z,5.00
2019-02-18T19:32:55.957Z,4.90
2019-02-18T19:35:23.283Z,4.80
2019-02-18T19:37:50.605Z,4.70
2019-02-18T19:40:18.028Z,4.60
2019-02-18T19:42:45.579Z,4.70
2019-02-18T19:45:15.661Z,4.50
2019-02-18T19:47:43.184Z,4.50
2019-02-18T19:50:10.539Z,4.50
2019-02-18T19:52:38.276Z,4.40
2019-02-18T19:55:06.518Z,4.30
2019-02-18T19:57:33.836Z,4.20
2019-02-18T20:00:02.212Z,4.20
2019-02-18T20:02:29.943Z,4.30
2019-02-18T20:04:57.911Z,4.20
2019-02-18T20:07:25.164Z,4.10
2019-02-18T20:09:52.864Z,4.00
2019-02-18T20:12:20.506Z,3.90
2019-02-18T20:14:47.852Z,3.90
2019-02-18T20:17:15.708Z,4.00
2019-02-18T20:19:43.356Z,4.10
2019-02-18T20:22:10.575Z,3.90
2019-02-18T20:24:37.820Z,3.90
2019-02-18T20:27:05.052Z,3.80
2019-02-18T20:29:32.312Z,3.80
2019-02-18T20:31:59.532Z,3.90
2019-02-18T20:34:26.883Z,3.70
2019-02-18T20:36:54.505Z,3.60
2019-02-18T20:39:21.750Z,3.50
2019-02-18T20:41:49.247Z,3.50
2019-02-18T20:44:16.803Z,3.50
2019-02-18T20:46:44.029Z,3.50
2019-02-18T20:49:11.258Z,3.40
2019-02-18T20:51:38.611Z,3.30
2019-02-18T20:54:06.235Z,3.30
2019-02-18T20:56:33.796Z,3.20
2019-02-18T20:59:01.116Z,3.20
2019-02-18T21:01:28.357Z,3.10
2019-02-18T21:03:55.932Z,3.00
2019-02-18T21:06:23.156Z,2.90
2019-02-18T21:08:50.407Z,2.90
2019-02-18T21:11:18.121Z,2.90
2019-02-18T21:13:45.767Z,2.90
2019-02-18T21:16:12.913Z,2.90
2019-02-18T21:18:40.652Z,2.90
2019-02-18T21:21:07.918Z,3.00
2019-02-18T21:23:35.228Z,3.10
2019-02-18T21:26:02.584Z,3.20
2019-02-18T21:28:30.305Z,3.20
2019-02-18T21:30:57.691Z,3.20
2019-02-18T21:33:25.220Z,3.30
2019-02-18T21:35:52.810Z,3.50
2019-02-18T21:38:20.045Z,3.70
2019-02-18T21:40:47.587Z,3.90
2019-02-18T21:43:15.168Z,4.20
2019-02-18T21:45:42.827Z,4.30
2019-02-18T21:48:10.135Z,4.30
2019-02-18T21:50:37.489Z,4.40
2019-02-18T21:53:04.802Z,4.40
2019-02-18T21:55:32.145Z,4.50
2019-02-18T21:57:59.908Z,4.40
2019-02-18T22:00:27.253Z,4.30
2019-02-18T22:02:54.880Z,4.30
2019-02-18T22:05:22.226Z,4.50
2019-02-18T22:07:49.712Z,4.30
2019-02-18T22:10:17.000Z,4.10
2019-02-18T22:12:44.652Z,4.10
2019-02-18T22:15:12.697Z,4.00
2019-02-18T22:17:39.911Z,3.80
2019-02-18T22:20:08.328Z,3.60
2019-02-18T22:22:35.855Z,3.40
2019-02-18T22:25:03.817Z,3.30
2019-02-18T22:27:31.149Z,3.30
2019-02-18T22:29:58.468Z,3.30
2019-02-18T22:32:25.692Z,3.20
2019-02-18T22:34:52.911Z,3.20
2019-02-18T22:37:20.173Z,3.20
2019-02-18T22:39:47.455Z,3.20
2019-02-18T22:42:14.676Z,3.40
2019-02-18T22:44:42.202Z,3.60
2019-02-18T22:47:09.507Z,3.80
2019-02-18T22:49:36.741Z,4.00
2019-02-18T22:52:04.068Z,4.10
2019-02-18T22:54:31.286Z,4.10
2019-02-18T22:56:58.617Z,3.90
2019-02-18T22:59:26.236Z,3.80
2019-02-18T23:01:53.461Z,3.70
2019-02-18T23:04:20.860Z,3.70
2019-02-18T23:06:48.184Z,3.70
2019-02-18T23:09:15.705Z,3.70
2019-02-18T23:11:43.035Z,3.90
2019-02-18T23:14:10.642Z,4.10
2019-02-18T23:16:37.959Z,4.20
2019-02-18T23:19:05.600Z,4.10
2019-02-18T23:21:32.853Z,4.00
2019-02-18T23:24:00.080Z,3.50
2019-02-18T23:26:27.605Z,3.20
2019-02-18T23:28:54.937Z,3.00
2019-02-18T23:31:22.283Z,2.90
2019-02-18T23:33:49.532Z,2.70
2019-02-18T23:36:16.760Z,2.60
2019-02-18T23:38:44.279Z,2.50
2019-02-18T23:41:11.528Z,2.40
2019-02-18T23:43:38.753Z,2.30
2019-02-18T23:46:06.343Z,2.20
2019-02-18T23:48:33.921Z,2.10
2019-02-18T23:51:01.286Z,2.10
2019-02-18T23:53:29.520Z,2.10
2019-02-18T23:55:57.723Z,2.00
2019-02-18T23:58:24.952Z,2.10
